Tropical Cyclones
[Index]
Main Index Home Page Stock Weather Photos Extreme Storms Discussion Storm News and Storm Chasing Reports Tropical Cyclones / Hurricanes / Typhoons Weather Data and Links Wild Fires / Bushfires Weather Observation Techniques Weather Picture Catalogue Tornado Pictures and Reports Stock Video Footage and DVDs for sale
Season 1983-1984 Tropical Cyclone OSCAR Track Map
Season 1983-1984 Summaries: [BoM-AU] [JTWC-AU] [JTWC-SIO] [JTWC-SPAC] [JTWC-SH]
<<- Previous TC | JTWC 1983-1984 Season | Next TC ->>

click for intensity scale information  Lat/long Grid: Show Hide

 Date Labels: Show Hide

Joint Typhoon Warning Centre Cyclone Data

Name: OSCAR

24 Oct 1983 18:00 UTC to 31 Oct 1983 06:00 UTC

    date/time    lat    long     hPa   cat  kts
1983-10-24 18   11.2    86.0                  30          
1983-10-25 00   11.5    87.7                  30          
1983-10-25 06   11.8    88.4                  35          
1983-10-25 12   12.0    88.1                  35          
1983-10-25 18   12.2    87.8            1     40          
1983-10-26 00   12.6    87.8            1     40          
1983-10-26 06   13.1    87.7            1     45          
1983-10-26 12   13.4    87.3            1     50          
1983-10-26 18   13.6    86.9            2     55          
1983-10-27 00   13.7    86.7            2     55          
1983-10-27 06   13.8    86.5            2     60          
1983-10-27 12   14.1    86.4            2     60          
1983-10-27 18   14.5    86.6            2     65          
1983-10-28 00   15.0    87.2            2     65          
1983-10-28 06   15.6    88.0            2     65          
1983-10-28 12   16.4    88.9            2     65          
1983-10-28 18   17.2    89.7            2     70          
1983-10-29 00   17.8    90.2            2     70          
1983-10-29 06   18.5    90.7            2     65          
1983-10-29 12   19.5    91.4            2     55          
1983-10-29 18   20.7    92.1            1     50          
1983-10-30 00   21.9    92.5            1     50          
1983-10-30 06   23.1    92.9            1     45          
1983-10-30 12   24.2    94.1            1     40          
1983-10-30 18   25.2    95.5                  35          
1983-10-31 00   26.1    96.4                  30          
1983-10-31 06   26.8    97.2                  20          
Winds are 1-min average.

Tropical cyclone tracks developed by Michael Bath using data from the Joint Typhoon Warning Centre Best Tracks and Google Maps.


[Australian Severe Weather index] [Copyright Notice] [Email Contacts] [Search This Site] [Privacy Policy]
Document: tropical_cyclone_oscar.htm Updated: 18 September 2016